createdAt,value
2022-12-01T00:02:24.000Z,26.42
2022-12-01T00:07:24.000Z,24.84
2022-12-01T00:12:25.000Z,24.26
2022-12-01T00:17:24.000Z,24.53
2022-12-01T00:22:24.000Z,24.83
2022-12-01T00:27:24.000Z,26.9
2022-12-01T00:32:25.000Z,26.37
2022-12-01T00:37:24.000Z,27.45
2022-12-01T00:42:24.000Z,26.72
2022-12-01T00:52:24.000Z,26.77
2022-12-01T00:57:24.000Z,26.09
2022-12-01T01:02:24.000Z,25.05
2022-12-01T01:07:24.000Z,23.73
2022-12-01T01:12:25.000Z,22.65
2022-12-01T01:17:24.000Z,21.15
2022-12-01T01:22:24.000Z,20.07
2022-12-01T01:27:24.000Z,19.86
2022-12-01T01:32:24.000Z,22.88
2022-12-01T01:37:24.000Z,23.39
2022-12-01T01:42:25.000Z,23.31
2022-12-01T01:47:24.000Z,24.68
2022-12-01T01:52:25.000Z,26.99
2022-12-01T01:57:24.000Z,27.74
2022-12-01T02:02:24.000Z,26.15
2022-12-01T02:07:24.000Z,26.32
2022-12-01T02:12:25.000Z,24.93
2022-12-01T02:17:24.000Z,25.57
2022-12-01T02:22:25.000Z,25.54
2022-12-01T02:27:24.000Z,24.55
2022-12-01T02:32:25.000Z,24.62
2022-12-01T02:37:25.000Z,23.67
2022-12-01T02:42:24.000Z,24.32
2022-12-01T02:47:25.000Z,24.26
2022-12-01T02:52:24.000Z,24.33
2022-12-01T02:57:25.000Z,23.27
2022-12-01T03:02:24.000Z,21.66
2022-12-01T03:07:25.000Z,20.67
2022-12-01T03:12:25.000Z,21.73
2022-12-01T03:17:24.000Z,20.39
2022-12-01T03:27:24.000Z,19.74
2022-12-01T03:32:25.000Z,19.61
2022-12-01T03:37:24.000Z,22.04
2022-12-01T03:42:25.000Z,22.64
2022-12-01T03:47:24.000Z,21.69
2022-12-01T03:52:24.000Z,21.4
2022-12-01T03:57:25.000Z,23.63
2022-12-01T04:02:25.000Z,24.54
2022-12-01T04:07:24.000Z,25.45
2022-12-01T04:12:24.000Z,24.46
2022-12-01T04:22:24.000Z,22.3
2022-12-01T04:27:25.000Z,20.09
2022-12-01T04:32:24.000Z,21.17
2022-12-01T04:37:24.000Z,19.97
2022-12-01T04:42:25.000Z,21.56
2022-12-01T04:47:24.000Z,22.47
2022-12-01T04:57:24.000Z,21.96
2022-12-01T05:02:25.000Z,20.77
2022-12-01T05:07:24.000Z,20.07
2022-12-01T05:12:24.000Z,20.72
2022-12-01T05:17:24.000Z,19.41
2022-12-01T05:22:24.000Z,20.68
2022-12-01T05:27:24.000Z,22.28
2022-12-01T05:32:25.000Z,23.65
2022-12-01T05:37:24.000Z,23.3
2022-12-01T05:42:25.000Z,25.89
2022-12-01T05:47:24.000Z,26.68
2022-12-01T05:52:25.000Z,21.52
2022-12-01T05:57:24.000Z,24.96
2022-12-01T06:02:24.000Z,30.39
2022-12-01T06:07:24.000Z,22.91
2022-12-01T06:12:24.000Z,24.11
2022-12-01T06:17:24.000Z,20.41
2022-12-01T06:22:24.000Z,20
2022-12-01T06:27:24.000Z,20.61
2022-12-01T06:32:24.000Z,23.91
2022-12-01T06:37:25.000Z,30.56
2022-12-01T06:42:25.000Z,34.36
2022-12-01T06:47:25.000Z,43.1
2022-12-01T06:52:24.000Z,39.55
2022-12-01T06:57:25.000Z,37.12
2022-12-01T07:07:24.000Z,38.4
2022-12-01T07:12:25.000Z,35.98
2022-12-01T07:17:24.000Z,34.82
2022-12-01T07:27:24.000Z,21.62
2022-12-01T07:32:24.000Z,21.51
2022-12-01T07:37:24.000Z,21.88
2022-12-01T07:47:25.000Z,20.35
2022-12-01T07:52:24.000Z,20.43
2022-12-01T08:02:24.000Z,20.53
2022-12-01T08:07:24.000Z,20.87
2022-12-01T08:12:24.000Z,21.26
2022-12-01T08:17:25.000Z,20.88
2022-12-01T08:22:24.000Z,24.52
2022-12-01T08:27:24.000Z,23.93
2022-12-01T08:32:24.000Z,24.76
2022-12-01T08:37:25.000Z,25.73
2022-12-01T08:42:24.000Z,22.13
2022-12-01T08:47:25.000Z,22.21
2022-12-01T08:52:24.000Z,22.47
2022-12-01T08:57:24.000Z,22.16
2022-12-01T09:02:24.000Z,23.74
2022-12-01T09:07:24.000Z,23.56
2022-12-01T09:12:25.000Z,21.82
2022-12-01T09:17:24.000Z,22.17
2022-12-01T09:22:25.000Z,21.48
2022-12-01T09:27:24.000Z,23.64
2022-12-01T09:32:25.000Z,31.06
2022-12-01T09:37:24.000Z,25.41
2022-12-01T09:42:24.000Z,22.17
2022-12-01T09:47:24.000Z,20.79
2022-12-01T09:57:25.000Z,20.24
2022-12-01T10:02:24.000Z,20.44
2022-12-01T10:07:24.000Z,18.61
2022-12-01T10:12:24.000Z,16.84
2022-12-01T10:17:25.000Z,17.18
2022-12-01T10:22:24.000Z,17.25
2022-12-01T10:27:24.000Z,16.53
2022-12-01T10:32:24.000Z,16.18
2022-12-01T10:37:25.000Z,16.03
2022-12-01T10:42:25.000Z,16.5
2022-12-01T10:47:24.000Z,16.25
2022-12-01T10:52:24.000Z,16.72
2022-12-01T10:57:24.000Z,17.97
2022-12-01T11:02:24.000Z,19.35
2022-12-01T11:07:24.000Z,22.53
2022-12-01T11:12:24.000Z,24.65
2022-12-01T11:17:24.000Z,24.42
2022-12-01T11:22:24.000Z,25.01
2022-12-01T11:27:24.000Z,25.85
2022-12-01T11:32:24.000Z,27.35
2022-12-01T11:37:25.000Z,26.56
2022-12-01T11:42:24.000Z,25.55
2022-12-01T11:47:25.000Z,24.54
2022-12-01T11:52:24.000Z,21.43
2022-12-01T11:57:25.000Z,19.79
2022-12-01T12:02:24.000Z,20.27
2022-12-01T12:07:24.000Z,19.85
2022-12-01T12:12:25.000Z,19.53
2022-12-01T12:17:24.000Z,20.6
2022-12-01T12:22:25.000Z,20.26
2022-12-01T12:27:25.000Z,20.18
2022-12-01T12:32:25.000Z,22.94
2022-12-01T12:37:25.000Z,21.49
2022-12-01T12:42:24.000Z,21.34
2022-12-01T12:47:24.000Z,26.59
2022-12-01T12:52:24.000Z,26.25
2022-12-01T12:57:25.000Z,25.79
2022-12-01T13:02:25.000Z,25.25
2022-12-01T13:07:24.000Z,24.5
2022-12-01T13:12:24.000Z,24.69
2022-12-01T13:17:24.000Z,25.83
2022-12-01T13:22:24.000Z,24.14
2022-12-01T13:27:24.000Z,24.47
2022-12-01T13:32:24.000Z,25.15
2022-12-01T13:37:25.000Z,26.24
2022-12-01T13:42:24.000Z,25.84
2022-12-01T13:47:25.000Z,25.45
2022-12-01T13:52:24.000Z,25.78
2022-12-01T13:57:24.000Z,25.38
2022-12-01T14:02:24.000Z,25.11
2022-12-01T14:07:25.000Z,26.36
2022-12-01T14:12:25.000Z,26.87
2022-12-01T14:17:24.000Z,27.89
2022-12-01T14:22:25.000Z,27.94
2022-12-01T14:27:25.000Z,28.57
2022-12-01T14:32:24.000Z,30.15
2022-12-01T14:37:25.000Z,30.36
2022-12-01T14:47:25.000Z,28.49
2022-12-01T14:52:25.000Z,29.33
2022-12-01T14:57:24.000Z,29.7
2022-12-01T15:02:24.000Z,32.2
2022-12-01T15:07:25.000Z,31.94
2022-12-01T15:12:24.000Z,32.25
2022-12-01T15:17:25.000Z,31.39
2022-12-01T15:22:24.000Z,32.68
2022-12-01T15:27:25.000Z,26.76
2022-12-01T15:32:25.000Z,31.5
2022-12-01T15:37:24.000Z,35.96
2022-12-01T15:42:24.000Z,31.77
2022-12-01T15:47:25.000Z,30.18
2022-12-01T15:52:24.000Z,28.92
2022-12-01T15:57:24.000Z,28.97
2022-12-01T16:02:25.000Z,25.08
2022-12-01T16:07:24.000Z,23.91
2022-12-01T16:12:24.000Z,24.25
2022-12-01T16:17:24.000Z,26.35
2022-12-01T16:22:25.000Z,26.2
2022-12-01T16:27:25.000Z,26.2
2022-12-01T16:32:24.000Z,23.87
2022-12-01T16:37:25.000Z,22.65
2022-12-01T16:42:24.000Z,21.63
2022-12-01T16:47:25.000Z,20.62
2022-12-01T16:52:24.000Z,22.77
2022-12-01T16:57:24.000Z,24.39
2022-12-01T17:02:25.000Z,27.47
2022-12-01T17:07:24.000Z,27.61
2022-12-01T17:12:24.000Z,27
2022-12-01T17:22:24.000Z,27.36
2022-12-01T17:27:25.000Z,27.55
2022-12-01T17:32:24.000Z,27.32
2022-12-01T17:37:25.000Z,28.26
2022-12-01T17:42:24.000Z,26.58
2022-12-01T17:47:25.000Z,27.59
2022-12-01T17:52:24.000Z,28.75
2022-12-01T17:57:25.000Z,31.13
2022-12-01T18:02:24.000Z,32.81
2022-12-01T18:07:25.000Z,37.32
2022-12-01T18:12:24.000Z,41.48
2022-12-01T18:17:24.000Z,38.41
2022-12-01T18:22:24.000Z,34.83
2022-12-01T18:27:24.000Z,32.3
2022-12-01T18:32:25.000Z,30.73
2022-12-01T18:37:24.000Z,29.77
2022-12-01T18:42:24.000Z,29.58
2022-12-01T18:52:24.000Z,29.63
2022-12-01T18:57:24.000Z,30.91
2022-12-01T19:02:25.000Z,31.9
2022-12-01T19:07:24.000Z,30.34
2022-12-01T19:12:24.000Z,29.76
2022-12-01T19:17:24.000Z,30.24
2022-12-01T19:22:24.000Z,27.98
2022-12-01T19:27:25.000Z,28.37
2022-12-01T19:32:24.000Z,27.94
2022-12-01T19:37:25.000Z,28.41
2022-12-01T19:42:25.000Z,30.25
2022-12-01T19:47:25.000Z,33.85
2022-12-01T19:52:24.000Z,32
2022-12-01T19:57:24.000Z,34.99
2022-12-01T20:02:24.000Z,32.76
2022-12-01T20:07:25.000Z,33.26
2022-12-01T20:12:24.000Z,35.61
2022-12-01T20:17:24.000Z,36.33
2022-12-01T20:22:25.000Z,38.63
2022-12-01T20:27:24.000Z,39.3
2022-12-01T20:32:24.000Z,39.75
2022-12-01T20:37:24.000Z,43.13
2022-12-01T20:42:25.000Z,47.41
2022-12-01T20:47:24.000Z,47.15
2022-12-01T20:52:24.000Z,46.54
2022-12-01T20:57:24.000Z,46.59
2022-12-01T21:02:24.000Z,48.95
2022-12-01T21:07:24.000Z,49.05
2022-12-01T21:12:24.000Z,48.54
2022-12-01T21:17:25.000Z,51.02
2022-12-01T21:22:24.000Z,53.76
2022-12-01T21:27:24.000Z,52.55
2022-12-01T21:32:24.000Z,52.39
2022-12-01T21:37:24.000Z,55.53
2022-12-01T21:42:25.000Z,54.65
2022-12-01T21:47:24.000Z,54.02
2022-12-01T21:52:25.000Z,52.45
2022-12-01T21:57:24.000Z,51.72
2022-12-01T22:02:24.000Z,50.89
2022-12-01T22:07:24.000Z,49.38
2022-12-01T22:12:24.000Z,45
2022-12-01T22:17:24.000Z,41.9
2022-12-01T22:22:24.000Z,45.98
2022-12-01T22:27:25.000Z,50.35
2022-12-01T22:32:24.000Z,51.21
2022-12-01T22:37:24.000Z,45.11
2022-12-01T22:42:25.000Z,42.12
2022-12-01T22:47:24.000Z,38.75
2022-12-01T22:57:25.000Z,35.87
2022-12-01T23:02:24.000Z,34.31
2022-12-01T23:07:25.000Z,32.33
2022-12-01T23:12:24.000Z,28.46
2022-12-01T23:17:25.000Z,27.41
2022-12-01T23:22:24.000Z,26.25
2022-12-01T23:27:24.000Z,27.12
2022-12-01T23:32:24.000Z,27.23
2022-12-01T23:37:24.000Z,30.85
2022-12-01T23:42:24.000Z,31.86
2022-12-01T23:47:24.000Z,38.4
2022-12-01T23:52:25.000Z,38.69
2022-12-01T23:57:24.000Z,35.73
